Time;durP1;ratioP1;P1;durP2;ratioP2;P2;SDS_P1;SDS_P2;PMS_P1;PMS_P2;Temp;Humidity;BMP_temperature;BMP_pressure;BME280_temperature;BME280_humidity;BME280_pressure;Samples;Min_cycle;Max_cycle;Signal;HPM_P1;HPM_P2
2023/03/27 00:01:37;;;;;;;;;;;20.00;35.80;;;;;;8330770;28;19925;-46
2023/03/27 00:05:38;;;;;;;;;;;20.00;35.80;;;;;;8330184;28;19917;-46
2023/03/27 00:09:38;;;;;;;;;;;20.00;35.80;;;;;;8331038;28;19928;-46
2023/03/27 00:13:39;;;;;;;;;;;20.00;35.80;;;;;;8330629;28;20004;-45
2023/03/27 00:17:40;;;;;;;;;;;20.00;35.90;;;;;;8330079;28;19925;-46
2023/03/27 00:21:40;;;;;;;;;;;20.00;35.90;;;;;;8330273;28;19931;-46
2023/03/27 00:25:41;;;;;;;;;;;19.90;35.80;;;;;;8330315;28;19921;-46
2023/03/27 00:29:41;;;;;;;;;;;19.90;35.80;;;;;;8329932;28;19945;-46
2023/03/27 00:33:42;;;;;;;;;;;19.90;35.80;;;;;;8330093;28;20298;-46
2023/03/27 00:37:42;;;;;;;;;;;19.90;35.80;;;;;;8330183;28;20329;-44
2023/03/27 00:41:43;;;;;;;;;;;19.90;35.90;;;;;;8329435;28;19931;-45
2023/03/27 00:45:43;;;;;;;;;;;19.90;35.90;;;;;;8336575;28;19913;-45
2023/03/27 00:49:44;;;;;;;;;;;19.90;35.90;;;;;;8337491;28;20298;-46
2023/03/27 00:53:46;;;;;;;;;;;19.90;35.90;;;;;;8337421;28;19917;-45
2023/03/27 00:57:50;;;;;;;;;;;19.80;35.80;;;;;;8336331;28;19964;-45
2023/03/27 01:01:51;;;;;;;;;;;19.90;35.90;;;;;;8335918;28;19971;-45
2023/03/27 01:05:52;;;;;;;;;;;19.80;35.80;;;;;;8334523;28;20020;-45
2023/03/27 01:09:53;;;;;;;;;;;19.80;35.90;;;;;;8336639;28;20035;-45
2023/03/27 01:14:12;;;;;;;;;;;19.80;35.90;;;;;;8335926;28;19918;-44
2023/03/27 01:18:25;;;;;;;;;;;19.80;35.90;;;;;;8335587;28;19971;-45
2023/03/27 01:22:38;;;;;;;;;;;19.70;35.90;;;;;;8335553;28;19932;-45
2023/03/27 01:26:56;;;;;;;;;;;19.80;35.90;;;;;;8335056;28;19924;-45
2023/03/27 01:31:14;;;;;;;;;;;19.80;35.90;;;;;;8335373;28;19925;-45
2023/03/27 01:35:17;;;;;;;;;;;19.80;35.90;;;;;;8335019;28;19921;-44
2023/03/27 01:39:29;;;;;;;;;;;19.80;36.00;;;;;;8335193;28;19925;-45
2023/03/27 01:43:30;;;;;;;;;;;19.70;35.90;;;;;;8334894;28;19924;-45
2023/03/27 01:47:49;;;;;;;;;;;19.70;35.90;;;;;;8334450;28;19918;-46
2023/03/27 01:51:53;;;;;;;;;;;19.70;35.90;;;;;;8334669;28;19928;-46
2023/03/27 01:55:57;;;;;;;;;;;19.70;35.90;;;;;;8333121;28;19913;-45
2023/03/27 02:00:00;;;;;;;;;;;19.70;35.90;;;;;;8334453;28;19968;-45
2023/03/27 02:04:01;;;;;;;;;;;19.70;36.00;;;;;;8334466;28;19921;-45
2023/03/27 02:08:13;;;;;;;;;;;19.70;36.00;;;;;;8333967;28;19913;-46
2023/03/27 02:12:15;;;;;;;;;;;19.60;36.00;;;;;;8334109;28;19924;-46
2023/03/27 02:16:18;;;;;;;;;;;19.60;35.90;;;;;;8334242;28;19975;-45
2023/03/27 02:20:19;;;;;;;;;;;19.60;36.00;;;;;;8333454;28;20004;-46
2023/03/27 02:24:19;;;;;;;;;;;19.60;36.00;;;;;;8333835;28;19917;-44
2023/03/27 02:28:41;;;;;;;;;;;19.60;36.00;;;;;;8333727;28;20409;-46
2023/03/27 02:32:46;;;;;;;;;;;19.60;36.00;;;;;;8333138;28;19924;-44
2023/03/27 02:36:49;;;;;;;;;;;19.60;36.00;;;;;;8333424;28;20021;-44
2023/03/27 02:40:59;;;;;;;;;;;19.60;36.00;;;;;;8333372;28;19929;-44
2023/03/27 02:45:09;;;;;;;;;;;19.60;36.00;;;;;;8332723;28;19917;-46
2023/03/27 02:49:12;;;;;;;;;;;19.60;36.00;;;;;;8333180;28;19917;-45
2023/03/27 02:53:15;;;;;;;;;;;19.60;36.00;;;;;;8332401;28;20418;-46
2023/03/27 02:57:18;;;;;;;;;;;19.50;36.00;;;;;;8332944;28;19924;-45
2023/03/27 03:01:21;;;;;;;;;;;19.60;36.00;;;;;;8332623;28;20020;-46
2023/03/27 03:05:22;;;;;;;;;;;19.50;36.00;;;;;;8331965;28;19921;-45
2023/03/27 03:09:23;;;;;;;;;;;19.50;35.90;;;;;;8332510;28;19924;-44
2023/03/27 03:13:24;;;;;;;;;;;19.50;36.00;;;;;;8332425;28;19978;-45
2023/03/27 03:17:24;;;;;;;;;;;19.50;36.00;;;;;;8332088;28;19918;-46
2023/03/27 03:21:24;;;;;;;;;;;19.50;36.00;;;;;;8332456;28;19968;-45
2023/03/27 03:25:25;;;;;;;;;;;19.50;35.90;;;;;;8332253;28;19913;-45
2023/03/27 03:29:29;;;;;;;;;;;19.50;36.00;;;;;;8331278;28;19924;-46
2023/03/27 03:33:29;;;;;;;;;;;19.50;35.90;;;;;;8331587;28;19917;-46
2023/03/27 03:37:37;;;;;;;;;;;19.50;35.90;;;;;;8331644;28;19917;-45
2023/03/27 03:41:37;;;;;;;;;;;19.50;35.90;;;;;;8330884;28;19960;-45
2023/03/27 03:45:38;;;;;;;;;;;19.50;35.90;;;;;;8331697;28;19914;-45
2023/03/27 03:49:38;;;;;;;;;;;19.50;35.90;;;;;;8331186;28;19917;-45
2023/03/27 03:53:39;;;;;;;;;;;19.50;35.90;;;;;;8330604;28;19921;-45
2023/03/27 03:57:42;;;;;;;;;;;19.50;35.90;;;;;;8331190;28;20279;-46
2023/03/27 04:01:44;;;;;;;;;;;19.50;35.90;;;;;;8330847;28;20338;-45
2023/03/27 04:05:45;;;;;;;;;;;19.50;35.90;;;;;;8330648;28;19925;-45
2023/03/27 04:09:46;;;;;;;;;;;19.50;36.00;;;;;;8305861;28;20008;-46
2023/03/27 04:13:46;;;;;;;;;;;19.50;36.00;;;;;;8315044;28;19913;-46
2023/03/27 04:17:47;;;;;;;;;;;19.60;36.00;;;;;;8329341;28;19917;-45
2023/03/27 04:21:47;;;;;;;;;;;19.70;35.90;;;;;;8330294;28;19974;-49
2023/03/27 04:25:48;;;;;;;;;;;19.80;35.80;;;;;;8330528;28;19917;-46
2023/03/27 04:29:48;;;;;;;;;;;19.90;35.70;;;;;;8329891;28;19921;-46
2023/03/27 04:33:51;;;;;;;;;;;20.00;35.80;;;;;;8330159;28;19920;-45
2023/03/27 04:37:51;;;;;;;;;;;20.00;35.70;;;;;;8330213;28;19964;-46
2023/03/27 04:41:52;;;;;;;;;;;20.10;35.70;;;;;;8329664;28;19932;-47
2023/03/27 04:45:53;;;;;;;;;;;20.20;35.70;;;;;;8330074;28;19924;-46
2023/03/27 04:49:54;;;;;;;;;;;20.20;35.70;;;;;;8329806;28;19918;-48
2023/03/27 04:53:55;;;;;;;;;;;20.30;35.60;;;;;;8329263;28;20371;-46
2023/03/27 04:57:56;;;;;;;;;;;20.30;35.60;;;;;;8312240;28;19924;-46
2023/03/27 05:01:57;;;;;;;;;;;20.30;35.50;;;;;;8330039;28;20252;-46
2023/03/27 05:05:58;;;;;;;;;;;20.30;35.60;;;;;;8329260;28;19924;-46
2023/03/27 05:09:58;;;;;;;;;;;20.40;35.60;;;;;;8329598;28;19917;-45
2023/03/27 05:13:59;;;;;;;;;;;20.30;35.60;;;;;;8328991;28;19923;-46
2023/03/27 05:18:00;;;;;;;;;;;20.30;35.70;;;;;;8329842;28;20366;-46
2023/03/27 05:22:03;;;;;;;;;;;20.30;35.60;;;;;;8329326;28;21323;-46
2023/03/27 05:26:03;;;;;;;;;;;20.20;35.60;;;;;;8328840;28;19921;-46
2023/03/27 05:30:05;;;;;;;;;;;20.20;35.50;;;;;;8332800;28;20366;-47
2023/03/27 05:34:05;;;;;;;;;;;20.20;35.60;;;;;;8335460;28;19913;-46
2023/03/27 05:38:07;;;;;;;;;;;20.20;35.60;;;;;;8334673;28;20371;-46
2023/03/27 05:42:07;;;;;;;;;;;20.20;35.60;;;;;;8335666;28;19921;-46
2023/03/27 05:46:08;;;;;;;;;;;20.20;35.50;;;;;;8335116;28;19924;-46
2023/03/27 05:50:09;;;;;;;;;;;20.10;35.40;;;;;;8334523;28;19952;-46
2023/03/27 05:54:09;;;;;;;;;;;20.10;35.50;;;;;;8335128;28;19924;-46
2023/03/27 05:58:12;;;;;;;;;;;20.10;36.10;;;;;;8334952;28;20002;-46
2023/03/27 06:02:16;;;;;;;;;;;20.10;35.70;;;;;;8334419;28;20274;-47
2023/03/27 06:06:16;;;;;;;;;;;20.10;35.70;;;;;;8334658;28;19963;-46
2023/03/27 06:10:19;;;;;;;;;;;20.10;35.50;;;;;;8334218;28;19917;-45
2023/03/27 06:14:19;;;;;;;;;;;20.20;35.60;;;;;;8333639;28;20003;-47
2023/03/27 06:18:20;;;;;;;;;;;20.20;35.50;;;;;;8316152;28;19924;-45
2023/03/27 06:22:20;;;;;;;;;;;20.30;35.50;;;;;;8334115;28;19921;-46
2023/03/27 06:26:21;;;;;;;;;;;20.30;35.40;;;;;;8333171;28;19918;-45
2023/03/27 06:30:22;;;;;;;;;;;20.40;35.30;;;;;;8333638;28;19944;-46
2023/03/27 06:34:23;;;;;;;;;;;20.40;35.30;;;;;;8333222;28;19933;-46
2023/03/27 06:38:23;;;;;;;;;;;20.40;35.30;;;;;;8332784;28;19924;-47
2023/03/27 06:42:24;;;;;;;;;;;20.40;35.20;;;;;;8332637;28;19921;-45
2023/03/27 06:46:25;;;;;;;;;;;20.40;35.20;;;;;;8332746;28;19921;-46
2023/03/27 06:50:26;;;;;;;;;;;20.40;35.20;;;;;;8332402;28;19917;-46
2023/03/27 06:54:27;;;;;;;;;;;20.40;35.20;;;;;;8332909;28;19924;-45
2023/03/27 06:58:27;;;;;;;;;;;20.40;35.10;;;;;;8332786;28;19917;-46
2023/03/27 07:02:28;;;;;;;;;;;20.40;35.10;;;;;;8332385;28;20349;-46
2023/03/27 07:06:28;;;;;;;;;;;20.40;35.20;;;;;;8317717;28;19923;-45
2023/03/27 07:10:29;;;;;;;;;;;20.30;35.10;;;;;;8321029;28;20290;-47
2023/03/27 07:14:29;;;;;;;;;;;20.30;35.10;;;;;;8331798;28;20068;-48
2023/03/27 07:18:30;;;;;;;;;;;20.30;35.00;;;;;;8332071;28;19913;-47
2023/03/27 07:22:30;;;;;;;;;;;20.30;34.90;;;;;;8332191;28;19925;-46
2023/03/27 07:26:31;;;;;;;;;;;20.30;34.90;;;;;;8331292;28;20406;-46
2023/03/27 07:30:33;;;;;;;;;;;20.20;34.80;;;;;;8332005;28;19944;-46
2023/03/27 07:34:33;;;;;;;;;;;20.20;34.90;;;;;;8331413;28;19967;-46
2023/03/27 07:38:34;;;;;;;;;;;20.20;34.90;;;;;;8331076;28;19920;-45
2023/03/27 07:42:35;;;;;;;;;;;20.20;34.90;;;;;;8331863;28;19925;-45
2023/03/27 07:46:36;;;;;;;;;;;20.20;35.00;;;;;;8331266;28;19924;-46
2023/03/27 07:50:37;;;;;;;;;;;20.20;34.80;;;;;;8330801;28;20397;-47
2023/03/27 07:54:37;;;;;;;;;;;20.20;34.90;;;;;;8313345;28;19914;-45
2023/03/27 07:58:38;;;;;;;;;;;20.10;35.30;;;;;;8330748;28;19961;-48
2023/03/27 08:02:38;;;;;;;;;;;20.10;34.80;;;;;;8330695;28;19932;-46
2023/03/27 08:06:39;;;;;;;;;;;20.10;34.80;;;;;;8330677;28;19917;-45
2023/03/27 08:10:40;;;;;;;;;;;20.00;34.80;;;;;;8330633;28;19913;-45
2023/03/27 08:14:40;;;;;;;;;;;20.00;34.80;;;;;;8329998;28;20298;-46
2023/03/27 08:18:41;;;;;;;;;;;20.00;35.10;;;;;;8330696;28;19920;-45
2023/03/27 08:22:41;;;;;;;;;;;20.00;34.90;;;;;;8330554;28;19975;-46
2023/03/27 08:26:42;;;;;;;;;;;20.00;34.80;;;;;;8329746;28;19917;-44
2023/03/27 08:30:43;;;;;;;;;;;20.00;34.80;;;;;;8330197;28;19917;-45
2023/03/27 08:34:43;;;;;;;;;;;20.00;34.90;;;;;;8330029;28;19924;-45
2023/03/27 08:38:44;;;;;;;;;;;20.00;34.80;;;;;;8330147;28;19923;-45
2023/03/27 08:42:45;;;;;;;;;;;20.00;34.80;;;;;;8330387;28;20001;-44
2023/03/27 08:46:54;;;;;;;;;;;20.00;34.80;;;;;;8330046;28;19917;-45
2023/03/27 08:50:57;;;;;;;;;;;19.90;34.80;;;;;;8329437;28;19917;-45
2023/03/27 08:55:13;;;;;;;;;;;19.90;34.80;;;;;;8332384;28;20379;-45
2023/03/27 08:59:16;;;;;;;;;;;19.90;34.70;;;;;;8329239;28;19927;-45
2023/03/27 09:03:31;;;;;;;;;;;19.90;34.70;;;;;;8330759;28;20291;-45
2023/03/27 09:08:10;;;;;;;;;;;19.90;34.70;;;;;;8336085;28;20325;-45
2023/03/27 09:12:31;;;;;;;;;;;19.90;34.60;;;;;;8202779;29;19928;-46
2023/03/27 09:16:32;;;;;;;;;;;19.90;34.60;;;;;;8276166;28;19933;-46
2023/03/27 09:20:35;;;;;;;;;;;19.90;34.60;;;;;;8335323;28;19929;-44
2023/03/27 09:24:39;;;;;;;;;;;19.90;34.60;;;;;;8335672;28;20266;-48
2023/03/27 09:28:50;;;;;;;;;;;19.80;34.40;;;;;;8335892;28;19928;-47
2023/03/27 09:32:52;;;;;;;;;;;19.80;34.50;;;;;;8302443;28;19964;-45
2023/03/27 09:36:54;;;;;;;;;;;19.80;34.50;;;;;;8327477;28;20301;-45
2023/03/27 09:41:01;;;;;;;;;;;19.80;34.40;;;;;;8335176;28;19928;-45
2023/03/27 09:45:03;;;;;;;;;;;19.90;34.40;;;;;;8335088;28;20362;-45
2023/03/27 09:49:14;;;;;;;;;;;19.80;34.30;;;;;;8334823;28;19913;-45
2023/03/27 09:53:20;;;;;;;;;;;19.90;34.40;;;;;;8334687;28;19917;-45
2023/03/27 09:57:21;;;;;;;;;;;19.90;34.40;;;;;;8335061;28;20361;-45
2023/03/27 10:01:27;;;;;;;;;;;19.80;34.30;;;;;;8334428;28;19932;-45
2023/03/27 10:05:30;;;;;;;;;;;19.90;34.30;;;;;;8333928;28;19917;-48
2023/03/27 10:09:33;;;;;;;;;;;19.90;34.30;;;;;;8333281;28;19918;-46
2023/03/27 10:13:33;;;;;;;;;;;19.90;34.40;;;;;;8334529;28;20021;-46
2023/03/27 10:17:36;;;;;;;;;;;19.90;34.30;;;;;;8332225;28;19921;-47
2023/03/27 10:21:38;;;;;;;;;;;19.80;34.20;;;;;;8333647;28;20012;-46
2023/03/27 10:25:44;;;;;;;;;;;19.90;34.30;;;;;;8333738;28;19924;-45
2023/03/27 10:29:44;;;;;;;;;;;19.80;34.20;;;;;;8333467;28;20369;-47
2023/03/27 10:33:45;;;;;;;;;;;19.80;34.20;;;;;;8334148;28;19920;-45
2023/03/27 10:37:46;;;;;;;;;;;19.80;34.20;;;;;;8333550;28;19917;-45
2023/03/27 10:41:47;;;;;;;;;;;19.80;34.10;;;;;;8332861;28;19964;-46
2023/03/27 10:45:52;;;;;;;;;;;19.90;34.10;;;;;;8333227;28;20374;-46
2023/03/27 10:49:52;;;;;;;;;;;19.90;34.10;;;;;;8332995;28;19921;-46
2023/03/27 10:53:54;;;;;;;;;;;19.90;34.10;;;;;;8332888;28;19945;-46
2023/03/27 10:57:57;;;;;;;;;;;19.90;34.00;;;;;;8332921;28;20413;-46
2023/03/27 11:02:09;;;;;;;;;;;19.90;33.90;;;;;;8332584;28;19926;-45
2023/03/27 11:06:12;;;;;;;;;;;20.00;34.00;;;;;;8344296;28;19916;-46
2023/03/27 11:10:13;;;;;;;;;;;20.00;34.00;;;;;;8359619;28;20282;-45
2023/03/27 11:14:23;;;;;;;;;;;19.90;33.90;;;;;;8332123;28;19988;-46
2023/03/27 11:18:27;;;;;;;;;;;19.90;33.90;;;;;;8332117;28;20278;-45
2023/03/27 11:22:30;;;;;;;;;;;19.90;33.90;;;;;;8331849;28;19940;-47
2023/03/27 11:26:34;;;;;;;;;;;19.90;33.90;;;;;;8331739;28;19921;-47
2023/03/27 11:30:40;;;;;;;;;;;20.00;33.90;;;;;;8331897;28;19971;-45
2023/03/27 11:35:01;;;;;;;;;;;20.00;33.90;;;;;;8335003;28;20402;-46
2023/03/27 11:39:21;;;;;;;;;;;20.00;33.90;;;;;;8331514;28;19924;-45
2023/03/27 11:43:21;;;;;;;;;;;20.00;33.80;;;;;;8331622;28;19925;-45
2023/03/27 11:47:28;;;;;;;;;;;20.00;33.70;;;;;;8330809;28;20009;-46
2023/03/27 11:51:28;;;;;;;;;;;20.00;33.70;;;;;;8330853;28;19976;-45
2023/03/27 11:55:36;;;;;;;;;;;20.00;33.60;;;;;;8330572;28;20353;-45
2023/03/27 11:59:55;;;;;;;;;;;20.10;33.60;;;;;;8330330;28;19913;-45
2023/03/27 12:04:14;;;;;;;;;;;20.00;33.70;;;;;;8297913;28;19929;-45
2023/03/27 12:08:20;;;;;;;;;;;20.00;33.60;;;;;;8325229;28;19956;-45
2023/03/27 12:12:20;;;;;;;;;;;20.00;33.70;;;;;;8330471;28;19967;-47
2023/03/27 12:16:21;;;;;;;;;;;20.00;33.70;;;;;;8330374;28;19913;-46
2023/03/27 12:20:30;;;;;;;;;;;20.00;33.60;;;;;;8330221;28;19925;-45
2023/03/27 12:24:49;;;;;;;;;;;20.10;33.60;;;;;;8330550;28;20007;-45
2023/03/27 12:28:49;;;;;;;;;;;20.10;33.60;;;;;;8330019;28;19921;-46
2023/03/27 12:32:58;;;;;;;;;;;20.10;33.60;;;;;;8329645;28;19921;-46
2023/03/27 12:36:59;;;;;;;;;;;20.10;33.50;;;;;;8329836;28;19964;-45
2023/03/27 12:41:04;;;;;;;;;;;20.10;33.40;;;;;;8328740;28;19925;-46
2023/03/27 12:45:18;;;;;;;;;;;20.10;33.50;;;;;;8330337;28;19994;-45
2023/03/27 12:49:18;;;;;;;;;;;20.10;33.50;;;;;;8330085;28;19997;-45
2023/03/27 12:53:28;;;;;;;;;;;20.10;33.50;;;;;;8329225;28;19917;-46
2023/03/27 12:57:28;;;;;;;;;;;20.10;33.50;;;;;;8329594;28;19917;-46
2023/03/27 13:01:35;;;;;;;;;;;20.10;33.40;;;;;;8329395;28;19990;-46
2023/03/27 13:05:54;;;;;;;;;;;20.10;33.40;;;;;;8327921;28;19925;-45
2023/03/27 13:09:54;;;;;;;;;;;20.10;33.40;;;;;;8329602;28;19914;-45
2023/03/27 13:13:58;;;;;;;;;;;20.10;33.40;;;;;;8329501;28;19917;-44
2023/03/27 13:17:58;;;;;;;;;;;20.10;33.40;;;;;;8329363;28;19925;-46
2023/03/27 13:22:17;;;;;;;;;;;20.10;33.30;;;;;;8329795;28;19925;-44
2023/03/27 13:26:36;;;;;;;;;;;20.10;33.40;;;;;;8328929;28;20330;-44
2023/03/27 13:30:39;;;;;;;;;;;20.10;33.40;;;;;;8329193;28;19925;-44
2023/03/27 13:34:40;;;;;;;;;;;20.10;33.30;;;;;;8329363;28;20360;-43
2023/03/27 13:38:50;;;;;;;;;;;20.10;33.40;;;;;;8328718;28;19924;-44
2023/03/27 13:42:53;;;;;;;;;;;20.10;33.30;;;;;;8329155;28;20358;-44
2023/03/27 13:47:30;;;;;;;;;;;20.10;33.30;;;;;;8329012;28;19917;-46
2023/03/27 13:51:30;;;;;;;;;;;20.10;33.30;;;;;;8315360;28;19918;-46
2023/03/27 13:55:33;;;;;;;;;;;20.10;33.20;;;;;;8334887;28;20290;-47
2023/03/27 13:59:42;;;;;;;;;;;20.10;33.30;;;;;;8333924;28;20011;-46
2023/03/27 14:03:44;;;;;;;;;;;20.10;33.30;;;;;;8334617;28;19925;-45
2023/03/27 14:08:00;;;;;;;;;;;20.10;33.20;;;;;;8334463;28;20294;-45
2023/03/27 14:12:06;;;;;;;;;;;20.10;33.30;;;;;;8333936;28;20285;-47
2023/03/27 14:16:14;;;;;;;;;;;20.10;33.30;;;;;;8334119;28;20476;-46
2023/03/27 14:20:21;;;;;;;;;;;20.10;33.20;;;;;;8333917;28;20011;-46
2023/03/27 14:24:21;;;;;;;;;;;20.10;33.30;;;;;;8334074;28;19917;-46
2023/03/27 14:28:28;;;;;;;;;;;20.10;33.20;;;;;;8334135;28;20004;-46
2023/03/27 14:32:28;;;;;;;;;;;20.10;33.30;;;;;;8333152;28;19917;-45
2023/03/27 14:36:32;;;;;;;;;;;20.10;33.30;;;;;;8333408;28;19914;-46
2023/03/27 14:40:40;;;;;;;;;;;20.10;33.20;;;;;;8333599;28;19929;-46
2023/03/27 14:44:40;;;;;;;;;;;20.10;33.20;;;;;;8332813;28;19952;-47
2023/03/27 14:48:43;;;;;;;;;;;20.10;33.10;;;;;;8332954;28;20290;-45
2023/03/27 14:52:49;;;;;;;;;;;20.10;33.20;;;;;;8333017;28;19960;-44
2023/03/27 14:56:50;;;;;;;;;;;20.10;33.10;;;;;;8332410;28;20394;-45
2023/03/27 15:00:53;;;;;;;;;;;20.00;33.10;;;;;;8332261;28;19921;-44
2023/03/27 15:04:55;;;;;;;;;;;20.10;33.10;;;;;;8332432;28;19921;-46
2023/03/27 15:08:58;;;;;;;;;;;20.10;33.20;;;;;;8331989;28;19921;-47
2023/03/27 15:12:58;;;;;;;;;;;20.10;33.30;;;;;;8332289;28;19954;-45
2023/03/27 15:17:07;;;;;;;;;;;20.20;33.20;;;;;;8331596;28;19917;-46
2023/03/27 15:21:25;;;;;;;;;;;20.20;33.10;;;;;;8332157;28;19921;-46
2023/03/27 15:25:44;;;;;;;;;;;20.40;33.10;;;;;;8332038;28;19963;-46
2023/03/27 15:29:48;;;;;;;;;;;20.50;33.00;;;;;;8331367;28;20027;-44
2023/03/27 15:34:02;;;;;;;;;;;20.50;32.90;;;;;;8331771;28;20370;-46
2023/03/27 15:38:06;;;;;;;;;;;20.50;32.80;;;;;;8331227;28;19917;-46
2023/03/27 15:42:13;;;;;;;;;;;20.60;32.70;;;;;;8331234;28;19922;-45
2023/03/27 15:46:15;;;;;;;;;;;20.70;32.60;;;;;;8331761;28;19924;-46
2023/03/27 15:50:21;;;;;;;;;;;20.70;32.60;;;;;;8330302;28;19940;-46
2023/03/27 15:54:23;;;;;;;;;;;20.80;32.60;;;;;;8331092;28;19924;-46
2023/03/27 15:58:25;;;;;;;;;;;20.80;32.50;;;;;;8330923;28;19913;-45
2023/03/27 16:02:26;;;;;;;;;;;20.80;32.50;;;;;;8324656;28;19929;-45
2023/03/27 16:06:31;;;;;;;;;;;20.80;32.40;;;;;;8331001;28;20397;-48
2023/03/27 16:10:32;;;;;;;;;;;20.80;32.40;;;;;;8330661;28;19921;-47
2023/03/27 16:14:39;;;;;;;;;;;20.80;32.40;;;;;;8328808;28;19928;-46
2023/03/27 16:18:39;;;;;;;;;;;20.70;32.40;;;;;;8330444;28;19924;-45
2023/03/27 16:22:40;;;;;;;;;;;20.70;32.50;;;;;;8330100;28;19921;-45
2023/03/27 16:26:40;;;;;;;;;;;20.70;32.50;;;;;;8329639;28;20243;-47
2023/03/27 16:30:41;;;;;;;;;;;20.60;32.40;;;;;;8330116;28;19939;-45
2023/03/27 16:34:42;;;;;;;;;;;20.60;32.40;;;;;;8312320;28;19963;-46
2023/03/27 16:38:43;;;;;;;;;;;20.60;32.50;;;;;;8329353;28;19917;-45
2023/03/27 16:42:43;;;;;;;;;;;20.60;32.40;;;;;;8329989;28;19925;-45
2023/03/27 16:46:45;;;;;;;;;;;20.50;32.40;;;;;;8329655;28;19918;-45
2023/03/27 16:50:45;;;;;;;;;;;20.60;32.50;;;;;;8329388;28;20019;-44
2023/03/27 16:54:46;;;;;;;;;;;20.50;32.50;;;;;;8329467;28;19993;-45
2023/03/27 16:58:47;;;;;;;;;;;20.50;32.50;;;;;;8329447;28;19967;-46
2023/03/27 17:02:47;;;;;;;;;;;20.50;32.50;;;;;;8329044;28;19925;-46
2023/03/27 17:06:48;;;;;;;;;;;20.60;32.50;;;;;;8330100;28;19913;-46
2023/03/27 17:10:48;;;;;;;;;;;20.60;32.50;;;;;;8329261;28;19924;-45
2023/03/27 17:14:49;;;;;;;;;;;20.60;32.60;;;;;;8328841;28;19922;-45
2023/03/27 17:18:50;;;;;;;;;;;20.70;32.60;;;;;;8329188;28;19932;-46
2023/03/27 17:22:51;;;;;;;;;;;20.70;32.50;;;;;;8329232;28;19921;-45
2023/03/27 17:26:51;;;;;;;;;;;20.70;32.40;;;;;;8333663;28;19917;-47
2023/03/27 17:30:54;;;;;;;;;;;20.80;32.50;;;;;;8335272;28;20003;-45
2023/03/27 17:34:55;;;;;;;;;;;20.80;32.60;;;;;;8335554;28;20226;-45
2023/03/27 17:38:55;;;;;;;;;;;20.80;32.60;;;;;;8334551;28;19971;-45
2023/03/27 17:42:56;;;;;;;;;;;20.80;32.40;;;;;;8334759;28;19956;-47
2023/03/27 17:46:56;;;;;;;;;;;20.80;32.40;;;;;;8334901;28;19918;-45
2023/03/27 17:50:56;;;;;;;;;;;20.70;32.30;;;;;;8334127;28;19921;-46
2023/03/27 17:54:57;;;;;;;;;;;20.70;32.30;;;;;;8334476;28;19917;-45
2023/03/27 17:58:57;;;;;;;;;;;20.70;32.30;;;;;;8334014;28;19914;-46
2023/03/27 18:02:58;;;;;;;;;;;20.70;32.20;;;;;;8334125;28;20047;-45
2023/03/27 18:06:58;;;;;;;;;;;20.60;32.20;;;;;;8334413;28;19913;-46
2023/03/27 18:10:59;;;;;;;;;;;20.60;32.20;;;;;;8333579;28;19918;-46
2023/03/27 18:14:59;;;;;;;;;;;20.60;32.20;;;;;;8333892;28;19924;-46
2023/03/27 18:19:00;;;;;;;;;;;20.60;32.20;;;;;;8333824;28;19917;-45
2023/03/27 18:23:00;;;;;;;;;;;20.50;32.30;;;;;;8333351;28;19925;-44
2023/03/27 18:27:01;;;;;;;;;;;20.50;32.20;;;;;;8334210;28;19932;-44
2023/03/27 18:31:03;;;;;;;;;;;20.50;32.30;;;;;;8333654;28;19960;-44
2023/03/27 18:35:05;;;;;;;;;;;20.50;32.50;;;;;;8332961;28;19967;-44
2023/03/27 18:39:06;;;;;;;;;;;20.50;32.50;;;;;;8332449;28;19932;-45
2023/03/27 18:43:06;;;;;;;;;;;20.50;32.50;;;;;;8333171;28;19933;-45
2023/03/27 18:47:07;;;;;;;;;;;20.50;32.60;;;;;;8332581;28;19917;-45
2023/03/27 18:51:08;;;;;;;;;;;20.50;32.70;;;;;;8332914;28;20402;-45
2023/03/27 18:55:09;;;;;;;;;;;20.50;32.80;;;;;;8333121;28;19921;-45
2023/03/27 18:59:10;;;;;;;;;;;20.60;32.70;;;;;;8314216;28;19921;-47
2023/03/27 19:03:16;;;;;;;;;;;20.70;32.70;;;;;;8332252;28;19994;-46
2023/03/27 19:07:17;;;;;;;;;;;20.70;32.60;;;;;;8314340;28;19976;-45
2023/03/27 19:11:17;;;;;;;;;;;20.70;32.60;;;;;;8328883;28;19925;-46
2023/03/27 19:15:18;;;;;;;;;;;20.80;32.60;;;;;;8332542;28;20633;-46
2023/03/27 19:19:19;;;;;;;;;;;20.80;32.60;;;;;;8331975;28;19952;-47
2023/03/27 19:23:19;;;;;;;;;;;20.70;32.60;;;;;;8331521;28;19932;-46
2023/03/27 19:27:20;;;;;;;;;;;20.70;32.60;;;;;;8332245;28;19948;-46
2023/03/27 19:31:20;;;;;;;;;;;20.70;32.60;;;;;;8332095;28;19924;-46
2023/03/27 19:35:21;;;;;;;;;;;20.70;32.60;;;;;;8331540;28;19918;-44
2023/03/27 19:39:21;;;;;;;;;;;20.70;32.60;;;;;;8331833;28;19921;-45
2023/03/27 19:43:22;;;;;;;;;;;20.60;32.60;;;;;;8331454;28;19933;-44
2023/03/27 19:47:22;;;;;;;;;;;20.60;32.60;;;;;;8331026;28;20325;-44
2023/03/27 19:51:23;;;;;;;;;;;20.60;32.60;;;;;;8331201;28;19999;-44
2023/03/27 19:55:24;;;;;;;;;;;20.60;32.70;;;;;;8331180;28;19924;-43
2023/03/27 19:59:25;;;;;;;;;;;20.50;32.70;;;;;;8330438;28;19917;-45
2023/03/27 20:03:26;;;;;;;;;;;20.50;32.80;;;;;;8330793;28;20382;-46
2023/03/27 20:07:26;;;;;;;;;;;20.50;32.90;;;;;;8331048;28;19913;-45
2023/03/27 20:11:27;;;;;;;;;;;20.50;32.90;;;;;;8329965;28;19924;-45
2023/03/27 20:15:28;;;;;;;;;;;20.50;32.90;;;;;;8330388;28;19918;-44
2023/03/27 20:19:29;;;;;;;;;;;20.50;32.90;;;;;;8330474;28;19917;-44
2023/03/27 20:23:36;;;;;;;;;;;20.50;33.00;;;;;;8329838;28;20019;-44
2023/03/27 20:27:36;;;;;;;;;;;20.50;33.00;;;;;;8330729;28;20403;-44
2023/03/27 20:31:37;;;;;;;;;;;20.60;33.00;;;;;;8330062;28;19917;-43
2023/03/27 20:35:39;;;;;;;;;;;20.50;32.90;;;;;;8329675;28;19943;-47
2023/03/27 20:39:43;;;;;;;;;;;20.60;32.80;;;;;;8330202;28;19917;-47
2023/03/27 20:43:45;;;;;;;;;;;20.60;32.80;;;;;;8329800;28;19979;-45
2023/03/27 20:47:46;;;;;;;;;;;20.60;32.80;;;;;;8329731;28;19921;-44
2023/03/27 20:51:47;;;;;;;;;;;20.60;32.80;;;;;;8329908;28;19917;-44
2023/03/27 20:55:48;;;;;;;;;;;20.50;32.70;;;;;;8329906;28;20283;-43
2023/03/27 20:59:48;;;;;;;;;;;20.60;32.70;;;;;;8330958;28;19963;-45
2023/03/27 21:03:52;;;;;;;;;;;20.50;32.60;;;;;;8336494;28;19979;-44
2023/03/27 21:07:52;;;;;;;;;;;20.50;32.70;;;;;;8336529;28;19996;-44
2023/03/27 21:11:54;;;;;;;;;;;20.50;32.80;;;;;;8335689;28;20381;-44
2023/03/27 21:15:54;;;;;;;;;;;20.50;32.80;;;;;;8336105;28;20290;-45
2023/03/27 21:19:55;;;;;;;;;;;20.40;32.80;;;;;;8335976;28;19924;-44
2023/03/27 21:23:55;;;;;;;;;;;20.40;32.90;;;;;;8317427;28;19921;-43
2023/03/27 21:27:56;;;;;;;;;;;20.40;33.00;;;;;;8335905;28;19964;-43
2023/03/27 21:31:56;;;;;;;;;;;20.30;33.00;;;;;;8334889;28;20294;-44
2023/03/27 21:35:57;;;;;;;;;;;20.30;33.10;;;;;;8334872;28;19924;-44
2023/03/27 21:39:58;;;;;;;;;;;20.30;33.10;;;;;;8335203;28;19917;-44
2023/03/27 21:43:58;;;;;;;;;;;20.30;33.10;;;;;;8334781;28;19913;-44
2023/03/27 21:47:59;;;;;;;;;;;20.20;33.20;;;;;;8362582;28;20461;-45
2023/03/27 21:51:59;;;;;;;;;;;20.20;33.20;;;;;;8341320;28;19917;-44
2023/03/27 21:56:00;;;;;;;;;;;20.20;33.30;;;;;;8334406;28;20286;-44
2023/03/27 22:00:00;;;;;;;;;;;20.20;33.30;;;;;;8334570;28;19917;-45
2023/03/27 22:04:01;;;;;;;;;;;20.20;33.20;;;;;;8364528;28;19921;-44
2023/03/27 22:08:01;;;;;;;;;;;20.10;33.20;;;;;;8334382;28;19917;-44
2023/03/27 22:12:02;;;;;;;;;;;20.10;33.20;;;;;;8333014;28;19917;-45
2023/03/27 22:16:10;;;;;;;;;;;20.10;33.30;;;;;;8334163;28;19921;-45
2023/03/27 22:20:11;;;;;;;;;;;20.10;33.30;;;;;;8333561;28;19921;-43
2023/03/27 22:24:11;;;;;;;;;;;20.00;33.20;;;;;;8334021;28;20334;-45
2023/03/27 22:28:12;;;;;;;;;;;20.00;33.20;;;;;;8334354;28;19921;-46
2023/03/27 22:32:12;;;;;;;;;;;20.00;33.20;;;;;;8333132;28;19921;-45
2023/03/27 22:36:13;;;;;;;;;;;20.00;33.20;;;;;;8333518;28;20062;-43
2023/03/27 22:40:13;;;;;;;;;;;19.90;33.20;;;;;;8333392;28;20262;-44
2023/03/27 22:44:14;;;;;;;;;;;20.00;33.30;;;;;;8332863;28;19960;-45
2023/03/27 22:48:14;;;;;;;;;;;19.90;33.20;;;;;;8333712;28;19996;-44
2023/03/27 22:52:15;;;;;;;;;;;19.90;33.30;;;;;;8332946;28;19918;-44
2023/03/27 22:56:16;;;;;;;;;;;19.90;33.30;;;;;;8332398;28;20298;-44
2023/03/27 23:00:17;;;;;;;;;;;19.80;33.30;;;;;;8332725;28;19921;-44
2023/03/27 23:04:17;;;;;;;;;;;19.90;33.30;;;;;;8332308;28;20067;-44
2023/03/27 23:08:19;;;;;;;;;;;19.80;33.30;;;;;;8332380;28;19917;-44
2023/03/27 23:12:19;;;;;;;;;;;19.80;33.30;;;;;;8332312;28;20000;-44
2023/03/27 23:16:20;;;;;;;;;;;19.80;33.30;;;;;;8332457;28;19991;-44
2023/03/27 23:20:20;;;;;;;;;;;19.80;33.30;;;;;;8331622;28;20055;-45
2023/03/27 23:24:21;;;;;;;;;;;19.80;33.30;;;;;;8331694;28;19913;-43
2023/03/27 23:28:22;;;;;;;;;;;19.70;33.30;;;;;;8332009;28;19924;-44
2023/03/27 23:32:22;;;;;;;;;;;19.70;33.30;;;;;;8331390;28;20236;-43